Findlay Airport Findlay US
ICAO: KFDY
IATA: FDY
Category: Medium
Scheduled Services: No

Elevation: 813 ft
TransAlt. 18000 ft.

Airport Communications:
TOLEDO APP/DEP:120.8
ASOS:124.425
CLEVELAND RDO:122.2
CTAF/UNICOM:122.725

KFDY Zoom In..

If you have problems with the map follow the link
https://www.worldairports.se/pages/airport.php?
ICAO=KFDY

Runways:

(A) RW 07 length 5883 ft width 100 ft
---- / hdg 74

(B) RW 18 length 6498 ft width 100 ft
---- / hdg 185

(C) RW 25 length 5883 ft width 100 ft
---- / hdg 254

(D) RW 36 length 6498 ft width 100 ft
---- / hdg 5

Location; KFDY
Day. 19 / Time. 17.53 Zulu
* Altimeter: 30.17
* Temperature: -09° c. -15.8°f.
* Wind from: 250° Speed 20 kn.
Dewpoint: -14° c.
Visibility: 4 Statute Miles.
Clouds: Overcast 2100 ft.
Conditions: Light Snow.

KFDY 191753Z AUTO 25020KT 4SM -SN OVC021 M09/M14 A3017 RMK AO2 PK WND 25026/1722 UPB02E18SNB18 SLP226 P0000 60000 T10941139 11094 21111 51015


Wind From 250°
Speed 20 kn.

 
 
jpsmedia worldairports.se 2020   terms of use